Time;durP1;ratioP1;P1;durP2;ratioP2;P2;SDS_P1;SDS_P2;PMS_P1;PMS_P2;Temp;Humidity;BMP_temperature;BMP_pressure;BME280_temperature;BME280_humidity;BME280_pressure;Samples;Min_cycle;Max_cycle;Signal;HPM_P1;HPM_P2
2023/02/01 00:01:39;;;;;;;21.27;9.00;;;7.50;67.10;;;;;;5055454;28;20403;-74
2023/02/01 00:04:05;;;;;;;24.23;9.23;;;7.50;67.50;;;;;;5056370;28;20390;-73
2023/02/01 00:06:30;;;;;;;24.37;9.60;;;7.40;68.90;;;;;;5055651;28;20412;-73
2023/02/01 00:08:56;;;;;;;17.88;8.82;;;7.40;69.40;;;;;;5055615;28;20393;-74
2023/02/01 00:11:23;;;;;;;24.58;9.30;;;7.50;69.20;;;;;;5055874;28;20420;-73
2023/02/01 00:13:49;;;;;;;29.45;9.80;;;7.40;70.10;;;;;;5060888;28;20381;-76
2023/02/01 00:16:18;;;;;;;27.42;10.38;;;7.50;70.40;;;;;;5064504;28;20424;-74
2023/02/01 00:18:44;;;;;;;27.35;11.38;;;7.40;71.90;;;;;;5056745;28;20428;-73
2023/02/01 00:21:11;;;;;;;25.20;10.38;;;7.40;72.40;;;;;;5055102;28;20393;-76
2023/02/01 00:23:38;;;;;;;29.88;11.88;;;7.40;74.20;;;;;;5055093;28;20431;-75
2023/02/01 00:26:06;;;;;;;24.77;12.30;;;7.30;75.60;;;;;;5055098;28;20377;-73
2023/02/01 00:28:33;;;;;;;28.17;12.63;;;7.30;76.70;;;;;;5054741;28;20472;-72
2023/02/01 00:31:04;;;;;;;26.98;12.60;;;7.40;78.50;;;;;;5055241;28;20389;-73
2023/02/01 00:33:31;;;;;;;26.27;12.57;;;7.40;79.20;;;;;;5062216;28;20400;-74
2023/02/01 00:36:05;;;;;;;25.52;13.10;;;7.50;80.00;;;;;;5058156;28;20377;-73
2023/02/01 00:38:31;;;;;;;28.63;13.68;;;7.40;80.70;;;;;;5054117;28;20435;-73
2023/02/01 00:41:10;;;;;;;36.80;14.55;;;7.40;82.60;;;;;;5055413;28;20383;-73
2023/02/01 00:43:35;;;;;;;32.38;14.55;;;7.40;83.80;;;;;;5056448;28;20381;-74
2023/02/01 00:46:01;;;;;;;32.90;15.53;;;7.40;83.60;;;;;;5053509;28;20719;-73
2023/02/01 00:48:27;;;;;;;26.43;14.40;;;7.30;85.50;;;;;;5053915;28;20744;-73
2023/02/01 00:50:52;;;;;;;34.07;14.80;;;7.30;85.20;;;;;;5053008;28;20814;-73
2023/02/01 00:53:18;;;;;;;26.60;13.80;;;7.40;85.60;;;;;;5052045;28;20512;-73
2023/02/01 00:55:48;;;;;;;28.20;14.57;;;7.30;85.50;;;;;;5053260;28;20408;-72
2023/02/01 00:58:14;;;;;;;34.20;14.67;;;7.30;85.90;;;;;;5053861;28;20380;-75
2023/02/01 01:00:40;;;;;;;32.60;13.38;;;7.20;85.20;;;;;;5051855;28;20385;-75
2023/02/01 01:03:26;;;;;;;38.27;13.10;;;7.20;84.10;;;;;;5052251;28;20505;-74
2023/02/01 01:05:56;;;;;;;30.65;12.77;;;7.20;83.10;;;;;;5051294;28;20420;-73
2023/02/01 01:08:21;;;;;;;36.70;12.10;;;7.20;82.70;;;;;;5051352;28;20437;-73
2023/02/01 01:10:47;;;;;;;25.73;11.97;;;7.20;81.70;;;;;;5051599;28;20385;-72
2023/02/01 01:13:12;;;;;;;28.97;11.83;;;7.10;80.90;;;;;;5051543;28;20378;-73
2023/02/01 01:15:39;;;;;;;30.50;11.00;;;7.20;78.80;;;;;;5052162;28;20885;-74
2023/02/01 01:18:06;;;;;;;24.73;10.98;;;7.20;78.00;;;;;;5051829;28;20390;-73
2023/02/01 01:20:34;;;;;;;25.50;9.02;;;7.10;75.40;;;;;;5052376;28;20739;-73
2023/02/01 01:22:59;;;;;;;25.83;9.80;;;7.20;71.60;;;;;;5050799;28;20403;-75
2023/02/01 01:25:25;;;;;;;21.80;8.83;;;7.20;69.30;;;;;;5051069;28;20903;-73
2023/02/01 01:27:51;;;;;;;22.60;8.30;;;7.30;66.60;;;;;;5053088;28;20385;-73
2023/02/01 01:30:17;;;;;;;31.70;9.03;;;7.40;64.40;;;;;;5060127;28;20381;-72
2023/02/01 01:32:43;;;;;;;26.17;8.60;;;7.30;65.20;;;;;;5072092;28;20409;-73
2023/02/01 01:35:09;;;;;;;27.35;8.18;;;7.20;63.60;;;;;;5064629;28;20787;-75
2023/02/01 01:37:35;;;;;;;28.33;8.55;;;7.20;62.40;;;;;;5056629;28;20450;-73
2023/02/01 01:40:02;;;;;;;23.58;7.25;;;7.20;59.70;;;;;;5056701;28;20482;-72
2023/02/01 01:42:27;;;;;;;20.92;6.70;;;7.20;58.10;;;;;;5055943;28;20484;-72
2023/02/01 01:44:58;;;;;;;21.08;6.80;;;7.10;58.10;;;;;;5055106;28;20511;-74
2023/02/01 01:47:28;;;;;;;21.58;6.30;;;7.10;58.00;;;;;;5055524;28;20416;-74
2023/02/01 01:49:54;;;;;;;21.55;6.40;;;7.10;56.60;;;;;;5057186;28;20385;-74
2023/02/01 01:52:20;;;;;;;22.58;6.00;;;7.10;56.40;;;;;;5057254;28;20485;-72
2023/02/01 01:54:51;;;;;;;31.13;7.05;;;7.00;55.50;;;;;;5053934;28;20515;-72
2023/02/01 01:57:31;;;;;;;23.10;5.70;;;6.90;55.40;;;;;;5054741;28;20503;-73
2023/02/01 02:00:07;;;;;;;22.40;5.93;;;7.00;54.10;;;;;;5054962;28;20414;-72
2023/02/01 02:02:32;;;;;;;20.30;5.70;;;6.90;55.00;;;;;;5054741;28;20474;-72
2023/02/01 02:04:58;;;;;;;16.55;5.10;;;6.90;54.70;;;;;;5054343;28;20836;-71
2023/02/01 02:07:29;;;;;;;24.47;6.03;;;6.80;55.20;;;;;;5054772;28;20472;-73
2023/02/01 02:09:55;;;;;;;30.30;6.80;;;6.80;55.50;;;;;;5055849;28;20386;-72
2023/02/01 02:12:21;;;;;;;22.33;5.70;;;6.70;55.90;;;;;;5054949;28;20385;-73
2023/02/01 02:14:47;;;;;;;20.93;5.47;;;6.70;57.20;;;;;;5054399;28;20431;-73
2023/02/01 02:17:27;;;;;;;23.33;5.80;;;6.70;57.10;;;;;;5054497;28;20393;-72
2023/02/01 02:20:22;;;;;;;17.83;5.18;;;6.70;56.30;;;;;;5054421;28;20400;-71
2023/02/01 02:23:10;;;;;;;28.75;6.13;;;6.70;56.20;;;;;;5054275;28;20820;-71
2023/02/01 02:26:13;;;;;;;21.02;5.22;;;6.60;56.80;;;;;;5054715;28;20862;-72
2023/02/01 02:29:27;;;;;;;27.70;5.85;;;6.60;56.00;;;;;;5052853;28;20377;-73
2023/02/01 02:32:08;;;;;;;20.25;5.78;;;6.50;57.10;;;;;;5053534;28;20394;-73
2023/02/01 02:35:08;;;;;;;22.30;5.72;;;6.50;57.50;;;;;;5053626;28;20462;-71
2023/02/01 02:37:54;;;;;;;22.98;6.03;;;6.40;57.60;;;;;;5050125;28;20396;-73
2023/02/01 02:40:51;;;;;;;25.10;6.40;;;6.50;56.70;;;;;;5052563;28;20385;-71
2023/02/01 02:49:29;;;;;;;20.63;4.90;;;6.40;56.20;;;;;;5053572;28;20858;-72
2023/02/01 02:55:05;;;;;;;20.88;5.28;;;6.20;58.10;;;;;;5053331;28;20427;-73
2023/02/01 03:05:59;;;;;;;21.00;5.82;;;6.10;59.50;;;;;;5052123;28;20376;-72
2023/02/01 03:08:26;;;;;;;22.45;5.53;;;6.10;60.60;;;;;;5053671;28;20388;-72
2023/02/01 03:11:05;;;;;;;19.92;5.22;;;6.10;60.70;;;;;;5053404;28;20444;-72
2023/02/01 03:14:08;;;;;;;21.25;6.00;;;6.30;59.70;;;;;;5053855;28;20396;-72
2023/02/01 03:16:44;;;;;;;23.25;5.80;;;6.40;59.10;;;;;;5053835;28;20373;-73
2023/02/01 03:19:19;;;;;;;23.92;6.43;;;6.40;58.60;;;;;;5052472;28;20532;-73
2023/02/01 03:21:52;;;;;;;24.10;6.15;;;6.50;58.80;;;;;;5052060;28;20437;-72
2023/02/01 03:24:20;;;;;;;26.13;6.22;;;6.40;59.70;;;;;;5053646;28;20922;-73
2023/02/01 03:26:54;;;;;;;20.67;5.13;;;6.50;59.60;;;;;;5053244;28;20389;-72
2023/02/01 03:29:29;;;;;;;18.67;5.40;;;6.50;60.00;;;;;;5055189;28;20401;-73
2023/02/01 03:31:55;;;;;;;20.38;5.60;;;6.60;59.20;;;;;;5068679;28;20386;-73
2023/02/01 03:34:21;;;;;;;27.10;6.95;;;6.60;58.80;;;;;;5061499;28;20444;-73
2023/02/01 03:36:59;;;;;;;24.23;5.80;;;6.60;58.60;;;;;;5053900;28;20469;-73
2023/02/01 03:39:48;;;;;;;25.98;6.18;;;6.70;57.60;;;;;;5053167;28;20393;-75
2023/02/01 03:42:19;;;;;;;25.02;6.20;;;6.70;57.50;;;;;;5052452;28;20397;-71
2023/02/01 03:44:57;;;;;;;21.38;5.53;;;6.70;57.00;;;;;;5053178;28;20383;-73
2023/02/01 03:47:32;;;;;;;30.10;6.25;;;6.80;56.30;;;;;;5052777;28;20916;-73
2023/02/01 03:50:05;;;;;;;28.33;5.63;;;6.80;56.80;;;;;;5052219;28;20385;-73
2023/02/01 03:52:39;;;;;;;25.77;6.15;;;6.80;56.10;;;;;;5052102;28;20412;-73
2023/02/01 03:55:06;;;;;;;23.27;5.50;;;6.80;56.60;;;;;;5051949;28;20719;-73
2023/02/01 03:57:35;;;;;;;26.27;6.13;;;6.90;55.50;;;;;;5052956;28;20389;-73
2023/02/01 04:00:21;;;;;;;22.20;5.50;;;6.80;55.30;;;;;;5052730;28;20393;-72
2023/02/01 04:02:47;;;;;;;25.50;6.10;;;6.90;55.50;;;;;;5055641;28;20863;-74
2023/02/01 04:05:13;;;;;;;23.65;5.35;;;6.90;55.20;;;;;;5056820;28;20446;-73
2023/02/01 04:07:39;;;;;;;20.00;5.20;;;6.90;55.00;;;;;;5052268;28;20471;-73
2023/02/01 04:10:05;;;;;;;23.97;5.90;;;6.90;55.10;;;;;;5051364;28;20392;-72
2023/02/01 04:12:30;;;;;;;25.98;5.65;;;6.90;55.00;;;;;;5050978;28;20389;-72
2023/02/01 04:14:56;;;;;;;26.88;6.05;;;6.90;54.70;;;;;;5051259;28;20715;-73
2023/02/01 04:17:21;;;;;;;31.45;6.00;;;6.90;54.50;;;;;;5051516;28;20381;-72
2023/02/01 04:19:47;;;;;;;26.05;5.80;;;6.90;55.40;;;;;;5050774;28;20393;-72
2023/02/01 04:22:12;;;;;;;28.80;5.90;;;6.80;55.70;;;;;;5051664;28;20837;-72
2023/02/01 04:24:38;;;;;;;32.67;5.78;;;6.70;56.80;;;;;;5051857;28;20381;-72
2023/02/01 04:27:03;;;;;;;31.13;5.65;;;6.60;58.10;;;;;;5050489;28;20461;-72
2023/02/01 04:29:29;;;;;;;24.93;5.70;;;6.50;58.90;;;;;;5051664;28;20859;-74
2023/02/01 04:31:55;;;;;;;28.53;6.50;;;6.50;59.50;;;;;;5051183;28;20385;-72
2023/02/01 04:34:22;;;;;;;31.77;5.80;;;6.40;60.30;;;;;;5050009;28;20890;-71
2023/02/01 04:36:48;;;;;;;26.35;5.72;;;6.40;60.90;;;;;;5051482;28;20381;-75
2023/02/01 04:39:13;;;;;;;30.73;7.00;;;6.30;62.60;;;;;;5051576;28;20420;-73
2023/02/01 04:41:39;;;;;;;28.48;5.50;;;6.30;62.60;;;;;;5051077;28;20428;-74
2023/02/01 04:44:05;;;;;;;32.28;6.15;;;6.30;62.50;;;;;;5050155;28;20386;-72
2023/02/01 04:46:30;;;;;;;20.00;4.90;;;6.30;62.50;;;;;;5051590;28;20968;-73
2023/02/01 04:48:56;;;;;;;25.30;6.00;;;6.40;61.60;;;;;;5052078;28;20381;-73
2023/02/01 04:51:21;;;;;;;28.17;5.53;;;6.30;62.80;;;;;;5049817;28;20576;-72
2023/02/01 04:53:47;;;;;;;20.43;5.40;;;6.40;62.50;;;;;;5051037;28;20482;-72
2023/02/01 04:56:13;;;;;;;27.00;5.93;;;6.30;62.50;;;;;;5050864;28;20385;-72
2023/02/01 04:58:38;;;;;;;29.17;5.65;;;6.40;62.40;;;;;;5049618;28;20390;-72
2023/02/01 05:01:05;;;;;;;30.92;6.72;;;6.50;62.30;;;;;;5049441;28;20393;-71
2023/02/01 05:03:32;;;;;;;27.23;5.68;;;6.50;61.70;;;;;;5050991;28;20846;-72
2023/02/01 05:05:59;;;;;;;27.65;6.00;;;6.50;62.10;;;;;;5051067;28;20897;-72
2023/02/01 05:08:25;;;;;;;28.88;5.70;;;6.50;61.20;;;;;;5050128;28;20377;-72
2023/02/01 05:10:51;;;;;;;30.73;5.90;;;6.50;61.60;;;;;;5050992;28;20407;-74
2023/02/01 05:16:01;;;;;;;31.08;6.63;;;6.50;60.90;;;;;;5051462;28;20924;-72
2023/02/01 05:18:27;;;;;;;38.47;6.50;;;6.40;61.90;;;;;;5051008;28;20385;-72
2023/02/01 05:20:52;;;;;;;31.20;6.10;;;6.30;63.10;;;;;;5050606;28;20842;-73
2023/02/01 05:23:18;;;;;;;24.90;6.23;;;6.30;63.40;;;;;;5050462;28;20705;-72
2023/02/01 05:25:43;;;;;;;26.93;5.80;;;6.30;63.40;;;;;;5050552;28;20388;-74
2023/02/01 05:28:09;;;;;;;27.80;6.40;;;6.30;63.60;;;;;;5050626;28;20381;-72
2023/02/01 05:30:35;;;;;;;29.70;6.30;;;6.30;63.40;;;;;;5050692;28;20484;-72
2023/02/01 05:33:01;;;;;;;27.00;5.95;;;6.30;62.90;;;;;;5050647;28;20408;-71
2023/02/01 05:35:27;;;;;;;26.42;5.85;;;6.20;63.40;;;;;;5050912;28;20391;-72
2023/02/01 05:37:52;;;;;;;30.52;6.30;;;6.20;64.10;;;;;;5050844;28;20386;-71
2023/02/01 05:40:18;;;;;;;27.17;5.93;;;6.20;64.70;;;;;;5050990;28;20401;-72
2023/02/01 05:42:43;;;;;;;25.40;5.73;;;6.20;64.50;;;;;;5050795;28;20766;-73
2023/02/01 05:45:09;;;;;;;28.20;5.20;;;6.20;63.70;;;;;;5050861;28;20863;-73
2023/02/01 05:47:35;;;;;;;28.23;5.50;;;6.20;64.10;;;;;;5051548;28;20393;-74
2023/02/01 05:50:00;;;;;;;27.30;5.47;;;6.10;64.50;;;;;;5050685;28;20388;-72
2023/02/01 05:52:26;;;;;;;25.65;5.45;;;6.10;65.10;;;;;;5050852;28;20397;-73
2023/02/01 05:54:52;;;;;;;24.90;5.57;;;6.10;64.60;;;;;;5053161;28;20717;-73
2023/02/01 05:57:18;;;;;;;26.40;5.37;;;6.10;64.70;;;;;;5054697;28;20767;-73
2023/02/01 05:59:47;;;;;;;29.75;6.10;;;6.10;65.20;;;;;;5052409;28;20420;-73
2023/02/01 06:02:13;;;;;;;30.67;5.90;;;6.10;64.70;;;;;;5052531;28;20433;-74
2023/02/01 06:04:39;;;;;;;26.30;5.53;;;6.10;65.50;;;;;;5060918;28;20438;-73
2023/02/01 06:07:06;;;;;;;29.20;6.30;;;6.10;65.10;;;;;;5058575;28;20812;-73
2023/02/01 06:09:32;;;;;;;22.48;5.60;;;6.00;66.00;;;;;;5060503;28;20385;-72
2023/02/01 06:11:58;;;;;;;26.55;5.90;;;6.00;65.90;;;;;;5064453;28;20480;-74
2023/02/01 06:14:24;;;;;;;24.63;6.10;;;5.90;67.00;;;;;;5050987;28;20408;-72
2023/02/01 06:16:50;;;;;;;26.83;6.20;;;5.90;67.50;;;;;;5050572;28;20385;-72
2023/02/01 06:19:15;;;;;;;30.85;6.32;;;6.10;66.10;;;;;;5053196;28;20693;-71
2023/02/01 06:21:41;;;;;;;26.65;6.10;;;6.20;64.60;;;;;;5053582;28;20485;-72
2023/02/01 06:24:06;;;;;;;30.40;6.07;;;6.30;64.20;;;;;;5053951;28;20386;-71
2023/02/01 06:26:32;;;;;;;33.00;6.43;;;6.40;63.00;;;;;;5055249;28;20374;-74
2023/02/01 06:28:58;;;;;;;30.98;5.95;;;6.50;61.30;;;;;;5058469;28;20382;-74
2023/02/01 06:31:25;;;;;;;31.00;5.90;;;6.60;60.40;;;;;;5055966;28;20443;-73
2023/02/01 06:33:51;;;;;;;28.70;5.95;;;6.60;60.70;;;;;;5061185;28;20420;-72
2023/02/01 06:36:18;;;;;;;28.85;6.43;;;6.60;60.20;;;;;;5068645;28;20886;-73
2023/02/01 06:38:44;;;;;;;31.00;5.68;;;6.60;59.80;;;;;;5054192;28;20758;-72
2023/02/01 06:41:10;;;;;;;32.40;6.85;;;6.60;59.80;;;;;;5053462;28;20393;-73
2023/02/01 06:43:37;;;;;;;26.90;5.70;;;6.60;59.70;;;;;;5053844;28;20404;-73
2023/02/01 06:46:07;;;;;;;30.00;5.80;;;6.60;60.30;;;;;;5053211;28;20535;-74
2023/02/01 06:48:34;;;;;;;30.25;5.40;;;6.70;58.80;;;;;;5053591;28;20932;-73
2023/02/01 06:50:59;;;;;;;35.95;6.47;;;6.70;58.40;;;;;;5051505;28;20394;-73
2023/02/01 06:53:26;;;;;;;28.58;5.82;;;6.70;59.10;;;;;;5053075;28;20492;-73
2023/02/01 06:55:59;;;;;;;21.00;5.55;;;6.70;58.60;;;;;;5051816;28;20382;-73
2023/02/01 06:58:29;;;;;;;28.58;5.45;;;6.80;58.40;;;;;;5053216;28;20382;-72
2023/02/01 07:00:55;;;;;;;31.20;5.82;;;6.80;57.90;;;;;;5052709;28;20381;-71
2023/02/01 07:03:20;;;;;;;28.63;6.10;;;6.80;57.20;;;;;;5053050;28;20390;-73
2023/02/01 07:05:46;;;;;;;23.40;5.83;;;6.80;57.40;;;;;;5053391;28;20413;-73
2023/02/01 07:08:11;;;;;;;33.27;5.97;;;6.80;57.40;;;;;;5053141;28;20403;-72
2023/02/01 07:10:37;;;;;;;26.47;5.10;;;6.80;57.20;;;;;;5053874;28;20417;-73
2023/02/01 07:13:03;;;;;;;35.90;6.05;;;6.90;57.20;;;;;;5052192;28;20457;-73
2023/02/01 07:15:29;;;;;;;25.33;6.10;;;6.90;57.80;;;;;;5052052;28;20389;-72
2023/02/01 07:17:55;;;;;;;24.03;4.90;;;6.90;57.40;;;;;;5053387;28;20382;-72
2023/02/01 07:20:20;;;;;;;29.83;6.05;;;6.90;57.40;;;;;;5052066;28;20462;-73
2023/02/01 07:22:46;;;;;;;36.90;6.30;;;6.90;57.80;;;;;;5052491;28;20559;-72
2023/02/01 07:25:12;;;;;;;25.43;5.90;;;6.80;58.60;;;;;;5052069;28;20409;-73
2023/02/01 07:27:37;;;;;;;32.03;6.23;;;6.90;57.60;;;;;;5052533;28;20385;-73
2023/02/01 07:30:07;;;;;;;29.07;6.20;;;6.90;57.50;;;;;;5051947;28;20386;-74
2023/02/01 07:32:32;;;;;;;31.13;6.10;;;6.90;57.70;;;;;;5052963;28;20385;-74
2023/02/01 07:34:58;;;;;;;28.00;6.00;;;6.90;57.60;;;;;;5053546;28;20392;-74
2023/02/01 07:37:24;;;;;;;27.88;5.53;;;7.00;57.40;;;;;;5053519;28;20397;-74
2023/02/01 07:39:51;;;;;;;29.05;6.22;;;7.00;57.10;;;;;;5052479;28;20397;-75
2023/02/01 07:42:16;;;;;;;32.03;5.78;;;7.00;57.10;;;;;;5054371;28;20435;-73
2023/02/01 07:44:42;;;;;;;23.23;5.60;;;7.00;56.70;;;;;;5043226;28;20409;-73
2023/02/01 07:47:09;;;;;;;25.90;5.78;;;7.10;55.90;;;;;;5041519;28;22548;-74
2023/02/01 07:49:35;;;;;;;26.47;5.77;;;7.00;56.40;;;;;;5050260;28;20468;-74
2023/02/01 07:52:01;;;;;;;35.95;5.80;;;7.00;56.60;;;;;;5049980;28;20428;-73
2023/02/01 07:54:26;;;;;;;29.77;5.65;;;7.00;57.20;;;;;;5064193;22;20793;-73
2023/02/01 07:56:52;;;;;;;34.38;6.40;;;7.10;56.70;;;;;;5049277;28;20689;-73
2023/02/01 07:59:17;;;;;;;26.65;5.68;;;7.10;56.70;;;;;;5049594;28;20889;-73
2023/02/01 08:01:43;;;;;;;28.88;6.18;;;7.10;57.30;;;;;;5037631;28;20410;-72
2023/02/01 08:04:12;;;;;;;32.58;5.60;;;7.10;57.00;;;;;;5041113;28;20840;-72
2023/02/01 08:06:38;;;;;;;34.17;6.38;;;7.20;56.10;;;;;;5039059;28;20402;-73
2023/02/01 08:09:04;;;;;;;28.67;5.60;;;7.10;56.50;;;;;;5030037;28;20379;-74
2023/02/01 08:11:30;;;;;;;24.65;5.68;;;7.10;56.50;;;;;;5046833;28;20827;-74
2023/02/01 08:13:57;;;;;;;29.95;6.80;;;7.20;55.70;;;;;;5050555;28;20409;-75
2023/02/01 08:16:23;;;;;;;28.83;6.40;;;7.10;56.20;;;;;;5047183;28;20416;-74
2023/02/01 08:18:49;;;;;;;29.10;7.10;;;7.20;56.00;;;;;;5042273;28;20982;-74
2023/02/01 08:21:18;;;;;;;35.23;7.03;;;7.20;55.60;;;;;;5029459;28;20395;-74
2023/02/01 08:23:44;;;;;;;32.63;7.40;;;7.30;55.60;;;;;;5043201;28;20381;-74
2023/02/01 08:26:22;;;;;;;29.35;7.50;;;7.30;55.70;;;;;;5050071;28;20706;-74
2023/02/01 08:29:08;;;;;;;28.95;6.40;;;7.30;55.60;;;;;;5051104;28;20427;-73
2023/02/01 08:31:34;;;;;;;26.47;6.30;;;7.30;55.30;;;;;;5051585;28;20483;-73
2023/02/01 08:34:03;;;;;;;28.17;6.63;;;7.20;56.10;;;;;;5048866;28;20400;-73
2023/02/01 08:36:30;;;;;;;30.83;6.85;;;7.30;54.80;;;;;;5055526;28;20407;-73
2023/02/01 08:38:56;;;;;;;34.10;6.50;;;7.30;55.00;;;;;;5047010;28;20489;-73
2023/02/01 08:41:28;;;;;;;25.35;6.72;;;7.30;55.20;;;;;;5047974;28;20409;-73
2023/02/01 08:43:54;;;;;;;25.77;6.30;;;7.30;55.00;;;;;;5049234;28;20438;-74
2023/02/01 08:46:21;;;;;;;24.58;6.80;;;7.30;54.80;;;;;;5048910;28;20388;-75
2023/02/01 08:48:47;;;;;;;28.13;6.68;;;7.30;55.50;;;;;;5048986;28;20390;-75
2023/02/01 08:51:21;;;;;;;35.83;7.43;;;7.30;55.00;;;;;;5046782;28;20527;-75
2023/02/01 08:53:47;;;;;;;30.58;6.82;;;7.40;55.30;;;;;;5048701;28;20405;-73
2023/02/01 08:56:15;;;;;;;31.48;6.88;;;7.50;55.10;;;;;;5048603;28;20394;-73
2023/02/01 08:58:41;;;;;;;30.05;6.57;;;7.50;54.00;;;;;;5049073;28;20441;-74
2023/02/01 09:01:09;;;;;;;27.67;6.43;;;7.50;53.80;;;;;;5046193;28;20810;-73
2023/02/01 09:03:35;;;;;;;37.00;7.07;;;7.50;53.20;;;;;;5065288;28;20840;-74
2023/02/01 09:06:02;;;;;;;25.25;5.88;;;7.50;53.30;;;;;;5066489;28;20400;-73
2023/02/01 09:08:28;;;;;;;37.78;6.70;;;7.60;53.10;;;;;;5048008;28;20385;-73
2023/02/01 09:10:59;;;;;;;31.47;6.17;;;7.60;52.40;;;;;;5050622;28;20389;-73
2023/02/01 09:13:24;;;;;;;32.40;7.90;;;7.60;52.60;;;;;;5054000;28;20806;-72
2023/02/01 09:15:51;;;;;;;33.17;6.70;;;7.60;52.60;;;;;;5060753;28;20403;-73
2023/02/01 09:18:16;;;;;;;32.20;6.28;;;7.60;52.00;;;;;;5053393;28;20413;-74
2023/02/01 09:20:42;;;;;;;24.63;5.95;;;7.60;51.60;;;;;;5063083;28;20393;-73
2023/02/01 09:23:07;;;;;;;27.47;6.10;;;7.50;51.80;;;;;;5063516;28;20397;-72
2023/02/01 09:25:33;;;;;;;26.17;6.40;;;7.50;52.20;;;;;;5060743;28;20441;-71
2023/02/01 09:27:58;;;;;;;28.33;6.50;;;7.50;52.80;;;;;;5048881;28;20889;-76
2023/02/01 09:30:24;;;;;;;30.63;6.90;;;7.50;52.60;;;;;;5065905;28;20729;-74
2023/02/01 09:32:50;;;;;;;29.80;6.75;;;7.60;51.80;;;;;;5070369;28;20759;-74
2023/02/01 09:35:16;;;;;;;30.75;7.20;;;7.60;52.20;;;;;;5070570;28;20899;-76
2023/02/01 09:37:41;;;;;;;27.65;6.53;;;7.70;50.70;;;;;;5073045;28;20376;-75
2023/02/01 09:40:13;;;;;;;28.43;7.00;;;7.80;50.20;;;;;;5056577;28;20398;-75
2023/02/01 09:43:03;;;;;;;24.02;6.20;;;7.90;49.90;;;;;;5067177;28;20482;-74
2023/02/01 09:45:32;;;;;;;30.10;5.90;;;7.90;49.60;;;;;;5071902;28;20917;-76
2023/02/01 09:48:08;;;;;;;23.58;6.05;;;7.90;49.50;;;;;;5067624;28;20388;-75
2023/02/01 09:50:39;;;;;;;19.02;5.30;;;7.90;49.10;;;;;;5049492;28;20746;-75
2023/02/01 09:53:19;;;;;;;23.90;5.90;;;7.80;49.50;;;;;;5051064;28;20471;-76
2023/02/01 09:55:50;;;;;;;27.30;6.80;;;7.80;50.60;;;;;;5053606;28;20509;-75
2023/02/01 09:58:43;;;;;;;23.90;6.03;;;7.70;51.80;;;;;;5056293;28;20401;-75
2023/02/01 10:01:23;;;;;;;30.02;6.95;;;7.80;50.90;;;;;;5055871;28;20385;-77
2023/02/01 10:03:50;;;;;;;27.83;6.60;;;7.80;51.20;;;;;;5054846;28;20888;-74
2023/02/01 10:06:53;;;;;;;31.63;6.68;;;7.90;50.80;;;;;;5054354;28;20408;-76
2023/02/01 10:09:19;;;;;;;33.95;6.90;;;8.00;49.40;;;;;;5013016;28;20517;-75
2023/02/01 10:12:05;;;;;;;28.02;6.15;;;7.90;48.90;;;;;;5053949;28;20401;-75
2023/02/01 10:14:34;;;;;;;18.98;5.53;;;8.00;48.80;;;;;;5053151;28;20904;-73
2023/02/01 10:17:28;;;;;;;23.33;6.60;;;7.90;50.20;;;;;;5053442;28;20480;-72
2023/02/01 10:20:18;;;;;;;31.87;6.30;;;8.00;48.60;;;;;;5033966;28;20479;-71
2023/02/01 10:22:51;;;;;;;27.40;5.85;;;8.10;48.30;;;;;;5033383;28;20433;-72
2023/02/01 10:25:25;;;;;;;30.35;6.30;;;8.10;47.70;;;;;;5033270;28;20465;-73
2023/02/01 10:27:51;;;;;;;19.90;6.30;;;8.20;47.10;;;;;;5033326;28;20416;-72
2023/02/01 10:30:23;;;;;;;25.35;6.07;;;8.30;45.90;;;;;;5033488;28;20375;-73
2023/02/01 10:32:55;;;;;;;26.60;6.22;;;8.30;46.00;;;;;;5033856;28;20404;-73
2023/02/01 10:35:33;;;;;;;34.70;6.90;;;8.30;46.00;;;;;;5033510;28;20394;-72
2023/02/01 10:38:02;;;;;;;27.03;6.50;;;8.20;46.30;;;;;;5033549;28;20468;-72
2023/02/01 10:40:28;;;;;;;25.63;6.45;;;8.20;47.00;;;;;;5033818;28;20822;-72
2023/02/01 10:43:01;;;;;;;26.38;6.45;;;8.30;46.40;;;;;;5034034;28;20411;-73
2023/02/01 10:45:33;;;;;;;24.90;5.60;;;8.30;45.40;;;;;;5034609;28;20430;-74
2023/02/01 10:48:02;;;;;;;25.92;6.53;;;8.30;45.30;;;;;;5034144;28;20415;-73
2023/02/01 10:50:46;;;;;;;23.52;5.90;;;8.40;45.00;;;;;;5034493;28;20385;-73
2023/02/01 10:53:37;;;;;;;23.50;5.55;;;8.40;44.80;;;;;;5033629;28;20457;-73
2023/02/01 10:56:09;;;;;;;29.63;5.75;;;8.40;44.70;;;;;;5034247;28;20383;-73
2023/02/01 10:58:43;;;;;;;23.58;5.20;;;8.60;43.40;;;;;;5033630;28;20471;-73
2023/02/01 11:01:15;;;;;;;22.73;5.85;;;8.60;42.30;;;;;;5033211;28;20387;-73
2023/02/01 11:03:43;;;;;;;24.20;5.85;;;8.60;41.60;;;;;;5035587;28;20415;-73
2023/02/01 11:06:28;;;;;;;22.42;5.57;;;8.60;42.10;;;;;;5035082;28;20394;-73
2023/02/01 11:08:56;;;;;;;24.25;5.05;;;8.50;41.50;;;;;;5036840;28;20382;-72
2023/02/01 11:11:23;;;;;;;29.40;5.10;;;8.50;42.20;;;;;;5033189;28;20422;-73
2023/02/01 11:14:00;;;;;;;26.08;5.45;;;8.40;42.10;;;;;;5035088;28;20378;-73
2023/02/01 11:16:37;;;;;;;23.77;5.30;;;8.40;42.30;;;;;;5033402;28;20510;-73
2023/02/01 11:19:04;;;;;;;26.30;5.47;;;8.40;42.80;;;;;;5032428;28;20433;-71
2023/02/01 11:21:30;;;;;;;21.25;5.35;;;8.50;42.90;;;;;;5032541;28;20438;-73
2023/02/01 11:24:00;;;;;;;22.05;5.50;;;8.60;42.10;;;;;;5033697;28;20383;-72
2023/02/01 11:26:28;;;;;;;20.20;4.90;;;8.60;41.50;;;;;;5032915;28;20462;-72
2023/02/01 11:29:02;;;;;;;22.92;5.50;;;8.60;41.60;;;;;;5032429;28;20390;-72
2023/02/01 11:31:28;;;;;;;21.08;5.40;;;8.60;41.60;;;;;;5032754;28;20872;-73
2023/02/01 11:34:00;;;;;;;19.10;5.40;;;8.60;41.10;;;;;;5032469;28;20398;-73
2023/02/01 11:36:30;;;;;;;29.10;6.35;;;8.60;41.50;;;;;;5032935;28;20433;-73
2023/02/01 11:39:29;;;;;;;29.10;5.80;;;8.60;42.10;;;;;;5032401;28;20373;-73
2023/02/01 11:42:16;;;;;;;25.80;5.93;;;8.70;41.60;;;;;;5032247;28;20434;-72
2023/02/01 11:44:44;;;;;;;28.45;6.20;;;8.70;41.30;;;;;;5032960;28;20491;-73
2023/02/01 11:47:39;;;;;;;25.40;5.83;;;8.70;41.90;;;;;;5033968;28;20872;-72
2023/02/01 11:50:16;;;;;;;22.60;5.28;;;8.70;40.30;;;;;;5028502;28;20402;-72
2023/02/01 11:52:55;;;;;;;27.38;5.95;;;8.60;40.50;;;;;;5032337;28;20467;-72
2023/02/01 11:55:50;;;;;;;31.73;6.28;;;8.60;40.90;;;;;;5032836;28;20425;-73
2023/02/01 11:58:22;;;;;;;25.93;5.37;;;8.70;41.20;;;;;;5032903;28;20477;-74
2023/02/01 12:00:59;;;;;;;22.90;5.80;;;8.70;40.30;;;;;;5032605;28;21025;-73
2023/02/01 12:03:43;;;;;;;23.30;5.25;;;8.80;40.20;;;;;;5032400;28;20418;-73
2023/02/01 12:06:36;;;;;;;24.92;5.40;;;8.70;40.40;;;;;;5032858;28;20385;-73
2023/02/01 12:09:17;;;;;;;25.10;6.50;;;8.70;40.50;;;;;;5035393;28;20825;-73
2023/02/01 12:12:14;;;;;;;18.83;4.95;;;8.70;41.10;;;;;;5040175;28;20457;-73
2023/02/01 12:14:56;;;;;;;21.25;5.30;;;8.80;39.70;;;;;;5051295;28;20436;-73
2023/02/01 12:17:59;;;;;;;26.23;6.25;;;8.80;39.80;;;;;;5043080;28;20430;-73
2023/02/01 12:20:41;;;;;;;24.08;5.30;;;8.90;39.70;;;;;;5035593;28;20405;-74
2023/02/01 12:23:20;;;;;;;28.17;5.90;;;8.80;39.60;;;;;;5031868;28;20407;-73
2023/02/01 12:26:24;;;;;;;22.87;5.83;;;8.80;40.10;;;;;;5033470;28;20379;-73
2023/02/01 12:28:55;;;;;;;28.63;7.13;;;8.70;40.00;;;;;;5033316;28;20422;-74
2023/02/01 12:31:34;;;;;;;30.15;6.57;;;8.60;41.30;;;;;;5032367;28;20397;-74
2023/02/01 12:34:32;;;;;;;29.13;6.28;;;8.50;42.10;;;;;;5031551;28;20936;-74
2023/02/01 12:37:16;;;;;;;27.42;6.03;;;8.60;42.10;;;;;;5031538;28;20467;-72
2023/02/01 12:40:15;;;;;;;24.57;5.47;;;8.60;42.20;;;;;;5030074;28;20865;-72
2023/02/01 12:42:57;;;;;;;30.27;6.78;;;8.60;42.50;;;;;;5031177;28;20411;-73
2023/02/01 12:45:41;;;;;;;23.52;6.13;;;8.60;42.40;;;;;;5031729;28;20378;-72
2023/02/01 12:48:26;;;;;;;23.23;5.20;;;8.50;43.00;;;;;;5031495;28;20783;-73
2023/02/01 12:50:59;;;;;;;27.02;6.55;;;8.50;43.60;;;;;;5029980;28;20390;-73
2023/02/01 12:53:42;;;;;;;27.20;5.60;;;8.50;43.30;;;;;;5046139;28;20432;-73
2023/02/01 12:56:14;;;;;;;24.23;6.60;;;8.50;42.60;;;;;;5031087;28;20422;-72
2023/02/01 12:58:42;;;;;;;22.42;5.30;;;8.50;43.10;;;;;;5031146;28;20693;-72
2023/02/01 13:01:40;;;;;;;23.37;5.30;;;8.50;43.10;;;;;;5029755;28;20431;-72
2023/02/01 13:04:19;;;;;;;28.38;6.28;;;8.50;43.00;;;;;;5031334;28;20387;-72
2023/02/01 13:06:52;;;;;;;18.25;5.20;;;8.50;42.90;;;;;;5031129;28;20432;-72
2023/02/01 13:09:36;;;;;;;22.35;4.50;;;8.50;43.10;;;;;;5047152;28;20785;-74
2023/02/01 13:12:20;;;;;;;23.57;5.23;;;8.60;42.60;;;;;;5030570;28;20429;-73
2023/02/01 13:15:09;;;;;;;27.57;5.30;;;8.60;42.50;;;;;;5031963;28;20930;-72
2023/02/01 13:17:35;;;;;;;22.05;4.65;;;8.60;43.10;;;;;;5032425;28;20387;-73
2023/02/01 13:20:33;;;;;;;17.95;4.50;;;8.60;42.00;;;;;;5033386;28;20409;-74
2023/02/01 13:23:08;;;;;;;23.77;6.05;;;8.70;42.50;;;;;;5032456;28;20483;-74
2023/02/01 13:25:54;;;;;;;20.08;4.47;;;8.70;41.90;;;;;;5031382;28;20376;-73
2023/02/01 13:28:25;;;;;;;22.13;4.78;;;8.70;42.60;;;;;;5032620;28;20423;-72